Time;durP1;ratioP1;P1;durP2;ratioP2;P2;SDS_P1;SDS_P2;PMS_P1;PMS_P2;Temp;Humidity;BMP_temperature;BMP_pressure;BME280_temperature;BME280_humidity;BME280_pressure;Samples;Min_cycle;Max_cycle;Signal;HPM_P1;HPM_P2
2023/08/06 00:02:03;;;;;;;5.93;4.57;;;;;;;;;;5010113;28;20132;-68
2023/08/06 00:04:29;;;;;;;7.47;4.88;;;;;;;;;;5014717;28;20165;-69
2023/08/06 00:06:54;;;;;;;7.43;4.70;;;;;;;;;;5015371;28;20049;-69
2023/08/06 00:09:19;;;;;;;6.50;4.85;;;;;;;;;;5011304;28;20052;-69
2023/08/06 00:11:46;;;;;;;6.72;4.55;;;;;;;;;;5015164;28;20073;-71
2023/08/06 00:14:15;;;;;;;6.60;4.35;;;;;;;;;;5014856;28;20099;-71
2023/08/06 00:16:42;;;;;;;6.50;4.68;;;;;;;;;;5013543;28;21039;-70
2023/08/06 00:19:07;;;;;;;6.03;4.38;;;;;;;;;;5015827;28;20076;-71
2023/08/06 00:21:33;;;;;;;7.60;4.95;;;;;;;;;;5013893;28;20197;-71
2023/08/06 00:23:58;;;;;;;5.95;4.32;;;;;;;;;;5015656;28;20056;-71
2023/08/06 00:26:24;;;;;;;6.07;4.03;;;;;;;;;;5012065;28;20068;-70
2023/08/06 00:28:50;;;;;;;6.93;4.50;;;;;;;;;;5013244;28;20101;-70
2023/08/06 00:31:15;;;;;;;8.25;4.50;;;;;;;;;;5010501;28;20050;-70
2023/08/06 00:33:40;;;;;;;7.45;4.60;;;;;;;;;;5012425;28;20052;-69
2023/08/06 00:36:06;;;;;;;5.88;3.95;;;;;;;;;;5013291;28;20077;-70
2023/08/06 00:38:31;;;;;;;4.95;4.20;;;;;;;;;;5011063;28;20057;-69
2023/08/06 00:40:57;;;;;;;7.90;3.65;;;;;;;;;;5013790;28;20042;-70
2023/08/06 00:43:22;;;;;;;5.72;3.63;;;;;;;;;;5003719;28;20141;-70
2023/08/06 00:45:48;;;;;;;4.25;3.70;;;;;;;;;;5013005;28;20228;-70
2023/08/06 00:48:14;;;;;;;4.50;3.75;;;;;;;;;;5010696;28;20436;-70
2023/08/06 00:50:39;;;;;;;6.50;3.88;;;;;;;;;;5009200;28;20081;-70
2023/08/06 00:53:05;;;;;;;8.32;3.35;;;;;;;;;;5015347;28;20140;-71
2023/08/06 00:55:30;;;;;;;4.13;3.33;;;;;;;;;;5013738;28;20065;-71
2023/08/06 00:57:56;;;;;;;5.60;3.60;;;;;;;;;;5013916;28;20428;-71
2023/08/06 01:00:23;;;;;;;4.05;3.45;;;;;;;;;;5011419;28;20049;-71
2023/08/06 01:02:49;;;;;;;4.07;3.38;;;;;;;;;;5010111;28;20042;-70
2023/08/06 01:05:14;;;;;;;3.63;2.88;;;;;;;;;;5009457;28;20133;-71
2023/08/06 01:08:08;;;;;;;5.25;3.60;;;;;;;;;;5015771;28;20075;-70
2023/08/06 01:10:48;;;;;;;3.55;3.10;;;;;;;;;;5002428;28;21431;-69
2023/08/06 01:13:21;;;;;;;5.70;3.90;;;;;;;;;;5008597;28;20064;-69
2023/08/06 01:15:50;;;;;;;7.85;3.50;;;;;;;;;;5010234;28;20620;-69
2023/08/06 01:18:16;;;;;;;6.72;3.50;;;;;;;;;;5010326;28;20057;-69
2023/08/06 01:20:42;;;;;;;3.75;3.33;;;;;;;;;;5014619;28;20057;-69
2023/08/06 01:23:07;;;;;;;5.05;3.92;;;;;;;;;;5016191;28;20056;-69
2023/08/06 01:25:48;;;;;;;6.93;3.20;;;;;;;;;;5012319;28;20566;-69
2023/08/06 01:28:32;;;;;;;4.78;3.30;;;;;;;;;;5013483;28;20206;-69
2023/08/06 01:31:01;;;;;;;4.68;3.47;;;;;;;;;;4994042;28;20045;-69
2023/08/06 01:33:29;;;;;;;7.70;3.58;;;;;;;;;;5012775;28;20046;-69
2023/08/06 01:35:55;;;;;;;6.20;3.35;;;;;;;;;;5006944;28;20129;-69
2023/08/06 01:38:21;;;;;;;4.25;3.45;;;;;;;;;;5008841;28;20061;-70
2023/08/06 01:40:46;;;;;;;5.43;3.63;;;;;;;;;;5005282;28;20088;-69
2023/08/06 01:43:12;;;;;;;3.83;3.38;;;;;;;;;;5000894;28;20054;-69
2023/08/06 01:45:37;;;;;;;6.18;4.07;;;;;;;;;;5001531;28;20041;-69
2023/08/06 01:48:03;;;;;;;3.67;2.85;;;;;;;;;;5000416;28;20041;-68
2023/08/06 01:50:28;;;;;;;4.32;3.42;;;;;;;;;;5000883;28;20510;-69
2023/08/06 01:52:54;;;;;;;3.50;3.20;;;;;;;;;;5000249;28;20145;-69
2023/08/06 01:55:19;;;;;;;3.22;2.92;;;;;;;;;;5000203;28;20088;-69
2023/08/06 01:57:45;;;;;;;4.05;3.08;;;;;;;;;;5007594;28;20042;-69
2023/08/06 02:00:11;;;;;;;4.32;3.20;;;;;;;;;;5000235;28;20061;-69
2023/08/06 02:02:40;;;;;;;5.50;3.83;;;;;;;;;;5000777;28;20107;-69
2023/08/06 02:05:06;;;;;;;4.38;3.65;;;;;;;;;;5000176;28;20111;-70
2023/08/06 02:07:32;;;;;;;5.45;3.80;;;;;;;;;;5001237;28;20049;-69
2023/08/06 02:09:57;;;;;;;6.72;3.33;;;;;;;;;;5000058;28;20065;-69
2023/08/06 02:12:22;;;;;;;5.45;4.00;;;;;;;;;;4999563;28;20053;-69
2023/08/06 02:14:48;;;;;;;7.43;3.78;;;;;;;;;;5000157;28;20974;-69
2023/08/06 02:17:13;;;;;;;7.75;3.55;;;;;;;;;;4999782;28;20815;-69
2023/08/06 02:19:39;;;;;;;5.00;3.88;;;;;;;;;;5000695;28;20469;-70
2023/08/06 02:22:05;;;;;;;5.68;3.95;;;;;;;;;;5000365;28;20045;-70
2023/08/06 02:24:30;;;;;;;4.15;3.47;;;;;;;;;;4998837;28;20042;-68
2023/08/06 02:26:56;;;;;;;6.15;4.07;;;;;;;;;;4999820;28;20503;-69
2023/08/06 02:29:21;;;;;;;4.25;3.72;;;;;;;;;;5000793;28;20053;-69
2023/08/06 02:31:47;;;;;;;5.70;3.97;;;;;;;;;;5001401;28;20422;-69
2023/08/06 02:34:12;;;;;;;4.47;3.80;;;;;;;;;;5000662;28;20049;-69
2023/08/06 02:36:38;;;;;;;7.70;3.60;;;;;;;;;;5000312;28;20057;-69
2023/08/06 02:39:03;;;;;;;4.50;3.60;;;;;;;;;;4999869;28;20108;-69
2023/08/06 02:41:29;;;;;;;7.25;3.25;;;;;;;;;;5001250;28;20162;-69
2023/08/06 02:43:56;;;;;;;8.95;3.30;;;;;;;;;;5004161;28;20046;-69
2023/08/06 02:46:22;;;;;;;4.53;3.50;;;;;;;;;;4998639;28;20041;-68
2023/08/06 02:48:48;;;;;;;4.90;3.80;;;;;;;;;;4999510;28;20041;-69
2023/08/06 02:51:14;;;;;;;5.72;3.47;;;;;;;;;;4999381;28;20177;-69
2023/08/06 02:53:40;;;;;;;5.97;3.50;;;;;;;;;;5000394;28;20041;-70
2023/08/06 02:56:09;;;;;;;4.68;3.10;;;;;;;;;;4999382;28;20531;-69
2023/08/06 02:58:48;;;;;;;3.60;3.10;;;;;;;;;;4999024;28;20046;-70
2023/08/06 03:01:26;;;;;;;4.88;2.78;;;;;;;;;;4999098;28;20037;-70
2023/08/06 03:03:56;;;;;;;3.20;2.60;;;;;;;;;;4999386;28;20104;-70
2023/08/06 03:06:28;;;;;;;2.67;2.47;;;;;;;;;;4997870;28;20108;-68
2023/08/06 03:08:56;;;;;;;4.32;2.75;;;;;;;;;;4999281;28;20064;-69
2023/08/06 03:11:22;;;;;;;3.80;2.88;;;;;;;;;;4999001;28;20651;-68
2023/08/06 03:13:51;;;;;;;3.83;2.80;;;;;;;;;;4998986;28;20457;-69
2023/08/06 03:16:17;;;;;;;3.10;2.80;;;;;;;;;;4998224;28;20038;-69
2023/08/06 03:18:43;;;;;;;4.22;2.65;;;;;;;;;;4997791;28;20104;-69
2023/08/06 03:21:09;;;;;;;5.85;2.88;;;;;;;;;;4998960;28;20667;-69
2023/08/06 03:23:35;;;;;;;4.70;2.45;;;;;;;;;;4998810;28;20046;-69
2023/08/06 03:26:04;;;;;;;3.67;2.47;;;;;;;;;;4998947;28;20050;-69
2023/08/06 03:28:31;;;;;;;2.83;2.53;;;;;;;;;;4997311;28;20057;-69
2023/08/06 03:31:04;;;;;;;3.50;2.63;;;;;;;;;;4998697;28;20458;-69
2023/08/06 03:33:40;;;;;;;2.88;2.60;;;;;;;;;;5018399;28;20050;-69
2023/08/06 03:36:10;;;;;;;4.18;2.40;;;;;;;;;;4996223;28;20392;-69
2023/08/06 03:38:35;;;;;;;2.60;2.40;;;;;;;;;;4996176;28;20140;-69
2023/08/06 03:41:04;;;;;;;3.15;2.38;;;;;;;;;;4998782;28;20095;-70
2023/08/06 03:43:30;;;;;;;2.47;2.25;;;;;;;;;;4998991;28;20050;-70
2023/08/06 03:45:55;;;;;;;2.92;2.60;;;;;;;;;;5002728;28;20045;-71
2023/08/06 03:48:21;;;;;;;3.53;2.50;;;;;;;;;;4999551;28;20038;-71
2023/08/06 03:50:47;;;;;;;2.05;1.92;;;;;;;;;;4998210;28;20043;-71
2023/08/06 03:53:14;;;;;;;4.80;1.90;;;;;;;;;;4998547;28;20089;-68
2023/08/06 03:55:40;;;;;;;2.42;2.22;;;;;;;;;;4999970;28;20546;-68
2023/08/06 03:58:05;;;;;;;5.30;2.20;;;;;;;;;;5001029;28;20042;-68
2023/08/06 04:00:31;;;;;;;5.68;2.17;;;;;;;;;;4998101;28;20045;-68
2023/08/06 04:02:56;;;;;;;2.33;2.10;;;;;;;;;;4999634;28;20045;-69
2023/08/06 04:05:22;;;;;;;2.10;1.90;;;;;;;;;;4998639;28;20045;-69
2023/08/06 04:07:48;;;;;;;3.03;1.95;;;;;;;;;;4998199;28;20046;-69
2023/08/06 04:10:13;;;;;;;2.28;1.95;;;;;;;;;;4999566;28;20119;-69
2023/08/06 04:12:39;;;;;;;2.97;2.10;;;;;;;;;;4998552;28;20045;-69
2023/08/06 04:15:05;;;;;;;2.00;1.90;;;;;;;;;;5005795;28;20588;-69
2023/08/06 04:17:31;;;;;;;2.30;2.10;;;;;;;;;;4998205;28;20687;-69
2023/08/06 04:19:58;;;;;;;2.83;2.20;;;;;;;;;;4998405;28;20049;-69
2023/08/06 04:22:24;;;;;;;1.70;1.60;;;;;;;;;;4996855;28;20112;-69
2023/08/06 04:24:49;;;;;;;5.13;1.75;;;;;;;;;;4998221;28;20046;-69
2023/08/06 04:27:16;;;;;;;1.70;1.60;;;;;;;;;;4999941;28;20471;-69
2023/08/06 04:29:43;;;;;;;2.15;1.55;;;;;;;;;;4998049;28;20141;-69
2023/08/06 04:32:10;;;;;;;4.10;1.77;;;;;;;;;;4997545;28;20128;-69
2023/08/06 04:34:38;;;;;;;2.15;1.70;;;;;;;;;;5013688;28;20205;-69
2023/08/06 04:37:04;;;;;;;2.03;1.80;;;;;;;;;;5000999;28;20161;-69
2023/08/06 04:39:30;;;;;;;2.97;1.90;;;;;;;;;;5001700;28;20046;-71
2023/08/06 04:41:57;;;;;;;2.72;1.70;;;;;;;;;;5003686;28;20127;-70
2023/08/06 04:44:23;;;;;;;2.63;1.73;;;;;;;;;;5001490;28;20523;-70
2023/08/06 04:46:49;;;;;;;2.10;1.90;;;;;;;;;;5001576;28;20136;-70
2023/08/06 04:49:14;;;;;;;2.40;1.98;;;;;;;;;;5002637;28;20042;-70
2023/08/06 04:51:40;;;;;;;1.80;1.70;;;;;;;;;;5003045;28;20045;-70
2023/08/06 04:54:05;;;;;;;3.90;1.70;;;;;;;;;;5001655;28;20049;-70
2023/08/06 04:56:32;;;;;;;2.10;1.90;;;;;;;;;;5009472;28;20133;-70
2023/08/06 04:58:58;;;;;;;5.22;1.92;;;;;;;;;;5002728;28;20045;-70
2023/08/06 05:01:24;;;;;;;1.90;1.80;;;;;;;;;;5002430;28;20045;-70
2023/08/06 05:03:50;;;;;;;1.98;1.83;;;;;;;;;;5002790;28;20054;-70
2023/08/06 05:06:15;;;;;;;2.08;1.80;;;;;;;;;;5003409;28;20049;-70
2023/08/06 05:08:40;;;;;;;2.17;1.80;;;;;;;;;;5001865;28;20081;-70
2023/08/06 05:11:06;;;;;;;2.00;1.63;;;;;;;;;;5002529;28;20052;-70
2023/08/06 05:13:31;;;;;;;1.88;1.77;;;;;;;;;;5002413;28;20419;-70
2023/08/06 05:15:57;;;;;;;1.83;1.55;;;;;;;;;;5000893;28;20124;-71
2023/08/06 05:18:22;;;;;;;2.05;1.85;;;;;;;;;;5010077;28;20049;-70
2023/08/06 05:20:48;;;;;;;3.55;1.65;;;;;;;;;;5002123;28;20503;-70
2023/08/06 05:23:13;;;;;;;1.98;1.60;;;;;;;;;;5002959;28;20399;-72
2023/08/06 05:25:39;;;;;;;1.70;1.58;;;;;;;;;;5004374;28;20394;-71
2023/08/06 05:28:04;;;;;;;1.48;1.38;;;;;;;;;;5001290;28;20474;-71
2023/08/06 05:30:30;;;;;;;1.42;1.33;;;;;;;;;;5001421;28;20054;-71
2023/08/06 05:32:55;;;;;;;7.32;1.77;;;;;;;;;;5002426;28;20049;-70
2023/08/06 05:35:21;;;;;;;4.07;1.42;;;;;;;;;;5000340;28;20053;-71
2023/08/06 05:37:47;;;;;;;1.98;1.48;;;;;;;;;;5005265;28;20165;-70
2023/08/06 05:40:13;;;;;;;2.42;1.33;;;;;;;;;;5000223;28;20046;-70
2023/08/06 05:42:38;;;;;;;2.17;1.38;;;;;;;;;;5001101;28;20049;-71
2023/08/06 05:45:04;;;;;;;1.35;1.10;;;;;;;;;;5000381;28;20075;-71
2023/08/06 05:47:30;;;;;;;1.50;1.40;;;;;;;;;;5001270;28;20092;-71
2023/08/06 05:49:55;;;;;;;1.50;1.38;;;;;;;;;;4999247;28;20072;-71
2023/08/06 05:52:20;;;;;;;1.45;1.35;;;;;;;;;;5001665;28;20069;-71
2023/08/06 05:54:46;;;;;;;1.60;1.30;;;;;;;;;;5001213;28;20422;-71
2023/08/06 05:57:11;;;;;;;1.40;1.30;;;;;;;;;;5002725;28;20041;-71
2023/08/06 05:59:37;;;;;;;2.15;1.30;;;;;;;;;;5000621;28;20049;-71
2023/08/06 06:02:02;;;;;;;1.70;1.10;;;;;;;;;;5000831;28;20251;-71
2023/08/06 06:04:28;;;;;;;1.60;1.23;;;;;;;;;;5001303;28;20053;-71
2023/08/06 06:06:53;;;;;;;1.20;1.10;;;;;;;;;;5005743;28;20073;-71
2023/08/06 06:09:19;;;;;;;1.15;1.05;;;;;;;;;;5008550;28;20056;-71
2023/08/06 06:11:44;;;;;;;1.17;1.08;;;;;;;;;;5009437;28;20046;-71
2023/08/06 06:14:09;;;;;;;1.23;1.13;;;;;;;;;;5003167;28;20123;-70
2023/08/06 06:16:35;;;;;;;3.90;1.25;;;;;;;;;;5009100;28;20057;-70
2023/08/06 06:19:00;;;;;;;1.55;1.27;;;;;;;;;;5007998;28;20038;-71
2023/08/06 06:21:26;;;;;;;2.35;1.40;;;;;;;;;;5005917;28;20164;-71
2023/08/06 06:23:51;;;;;;;1.67;1.23;;;;;;;;;;5007459;28;20132;-71
2023/08/06 06:26:19;;;;;;;3.33;1.40;;;;;;;;;;5007311;28;20060;-72
2023/08/06 06:28:45;;;;;;;1.45;1.20;;;;;;;;;;5005903;28;20080;-72
2023/08/06 06:31:10;;;;;;;1.23;1.00;;;;;;;;;;5008385;28;20351;-72
2023/08/06 06:33:36;;;;;;;1.55;1.15;;;;;;;;;;5005212;28;20136;-72
2023/08/06 06:36:03;;;;;;;1.33;1.23;;;;;;;;;;5001642;28;20495;-71
2023/08/06 06:38:29;;;;;;;1.38;1.27;;;;;;;;;;5000004;28;20050;-72
2023/08/06 06:40:55;;;;;;;2.38;1.10;;;;;;;;;;5001019;28;20533;-72
2023/08/06 06:43:21;;;;;;;2.90;1.38;;;;;;;;;;4999644;28;20042;-72
2023/08/06 06:45:47;;;;;;;1.45;1.23;;;;;;;;;;5001473;28;20050;-72
2023/08/06 06:48:12;;;;;;;1.60;1.10;;;;;;;;;;5000534;28;20053;-73
2023/08/06 06:50:39;;;;;;;2.25;1.27;;;;;;;;;;4998659;28;20057;-72
2023/08/06 06:53:04;;;;;;;1.65;1.25;;;;;;;;;;5000887;28;20050;-71
2023/08/06 06:55:30;;;;;;;1.88;0.98;;;;;;;;;;4999634;28;20135;-72
2023/08/06 06:57:55;;;;;;;2.03;0.93;;;;;;;;;;4998602;28;20095;-72
2023/08/06 07:00:21;;;;;;;1.40;1.25;;;;;;;;;;4999578;28;20363;-73
2023/08/06 07:02:47;;;;;;;2.90;1.30;;;;;;;;;;4998694;28;20049;-73
2023/08/06 07:05:12;;;;;;;3.45;0.98;;;;;;;;;;4999001;28;20437;-72
2023/08/06 07:07:38;;;;;;;2.10;1.05;;;;;;;;;;5002719;28;20068;-72
2023/08/06 07:10:04;;;;;;;1.13;0.98;;;;;;;;;;5000735;28;20053;-72
2023/08/06 07:12:29;;;;;;;3.65;1.30;;;;;;;;;;4999761;28;20155;-73
2023/08/06 07:14:55;;;;;;;1.40;1.10;;;;;;;;;;5006138;28;20505;-73
2023/08/06 07:17:20;;;;;;;0.82;0.82;;;;;;;;;;5006742;28;20585;-73
2023/08/06 07:19:46;;;;;;;1.27;1.00;;;;;;;;;;4998761;28;20033;-73
2023/08/06 07:22:11;;;;;;;2.30;1.25;;;;;;;;;;4999687;28;20042;-73
2023/08/06 07:24:37;;;;;;;1.20;1.10;;;;;;;;;;5002168;28;20068;-73
2023/08/06 07:27:02;;;;;;;3.13;1.10;;;;;;;;;;5003830;28;20045;-72
2023/08/06 07:29:28;;;;;;;1.27;0.93;;;;;;;;;;5002164;28;20054;-72
2023/08/06 07:31:55;;;;;;;0.80;0.80;;;;;;;;;;5005870;28;20046;-72
2023/08/06 07:34:20;;;;;;;2.00;0.98;;;;;;;;;;5005389;28;20045;-71
2023/08/06 07:36:46;;;;;;;1.55;0.88;;;;;;;;;;5003720;28;20046;-73
2023/08/06 07:39:12;;;;;;;2.03;0.90;;;;;;;;;;5002109;28;20042;-72
2023/08/06 07:41:37;;;;;;;0.77;0.77;;;;;;;;;;5004792;28;20210;-74
2023/08/06 07:44:02;;;;;;;2.63;0.82;;;;;;;;;;5007390;28;20076;-72
2023/08/06 07:46:28;;;;;;;1.13;0.70;;;;;;;;;;5003575;28;20065;-72
2023/08/06 07:48:53;;;;;;;0.98;0.70;;;;;;;;;;5003833;28;20046;-73
2023/08/06 07:51:19;;;;;;;1.08;0.70;;;;;;;;;;5003252;28;20050;-73
2023/08/06 07:53:45;;;;;;;1.05;0.68;;;;;;;;;;5002219;28;20049;-74
2023/08/06 07:56:10;;;;;;;1.05;0.60;;;;;;;;;;5005103;28;20049;-72
2023/08/06 07:58:36;;;;;;;0.85;0.60;;;;;;;;;;5001231;28;20140;-71
2023/08/06 08:01:01;;;;;;;6.28;0.70;;;;;;;;;;4997382;28;20038;-72
2023/08/06 08:03:27;;;;;;;0.57;0.50;;;;;;;;;;4998299;28;20056;-71
2023/08/06 08:05:58;;;;;;;0.55;0.40;;;;;;;;;;5001421;28;20034;-72
2023/08/06 08:08:24;;;;;;;1.47;0.57;;;;;;;;;;5003577;28;20034;-72
2023/08/06 08:10:49;;;;;;;2.83;0.50;;;;;;;;;;5004125;28;20122;-73
2023/08/06 08:13:14;;;;;;;2.67;0.70;;;;;;;;;;5007249;28;20056;-72
2023/08/06 08:15:40;;;;;;;0.50;0.50;;;;;;;;;;5014128;28;20120;-74
2023/08/06 08:18:08;;;;;;;1.23;0.60;;;;;;;;;;5013262;28;20037;-73
2023/08/06 08:20:35;;;;;;;2.40;0.60;;;;;;;;;;5012772;28;20052;-72
2023/08/06 08:23:01;;;;;;;1.15;0.47;;;;;;;;;;5014320;28;20084;-73
2023/08/06 08:25:27;;;;;;;1.20;0.65;;;;;;;;;;5005947;28;20069;-73
2023/08/06 08:27:56;;;;;;;0.45;0.45;;;;;;;;;;5014585;28;20215;-73
2023/08/06 08:30:22;;;;;;;2.95;0.90;;;;;;;;;;5010053;28;20041;-73
2023/08/06 08:32:49;;;;;;;0.70;0.50;;;;;;;;;;5014190;28;20048;-73
2023/08/06 08:35:15;;;;;;;1.80;0.57;;;;;;;;;;5011415;28;20042;-73
2023/08/06 08:37:41;;;;;;;0.55;0.55;;;;;;;;;;5013675;28;20054;-73
2023/08/06 08:40:11;;;;;;;0.65;0.60;;;;;;;;;;5013920;28;20034;-74
2023/08/06 08:42:36;;;;;;;2.75;0.80;;;;;;;;;;5011138;28;20045;-72
2023/08/06 08:45:04;;;;;;;0.77;0.75;;;;;;;;;;5012531;28;20046;-74
2023/08/06 08:47:30;;;;;;;1.13;0.70;;;;;;;;;;5011482;28;20052;-75
2023/08/06 08:49:57;;;;;;;2.03;0.80;;;;;;;;;;5013688;28;20041;-75
2023/08/06 08:52:25;;;;;;;0.40;0.40;;;;;;;;;;5006206;28;20042;-74
2023/08/06 08:54:52;;;;;;;1.05;0.60;;;;;;;;;;5015203;28;20053;-75
2023/08/06 08:57:19;;;;;;;1.70;0.73;;;;;;;;;;5010153;28;20046;-74
2023/08/06 08:59:44;;;;;;;0.95;0.68;;;;;;;;;;5015191;28;20049;-73
2023/08/06 09:02:13;;;;;;;1.02;0.77;;;;;;;;;;5015349;28;20507;-72
2023/08/06 09:04:40;;;;;;;0.60;0.60;;;;;;;;;;5021266;28;20038;-72
2023/08/06 09:07:07;;;;;;;1.23;0.50;;;;;;;;;;5017046;28;20053;-72
2023/08/06 09:09:36;;;;;;;1.08;0.45;;;;;;;;;;5009927;28;20049;-71
2023/08/06 09:12:10;;;;;;;3.25;0.47;;;;;;;;;;5009517;28;20092;-71
2023/08/06 09:14:35;;;;;;;0.60;0.45;;;;;;;;;;5013669;28;20072;-72
2023/08/06 09:17:01;;;;;;;0.52;0.35;;;;;;;;;;5005953;28;20060;-72
2023/08/06 09:19:26;;;;;;;1.08;0.55;;;;;;;;;;5009909;28;20918;-73
2023/08/06 09:21:55;;;;;;;1.67;0.57;;;;;;;;;;5007439;28;20084;-71
2023/08/06 09:24:20;;;;;;;0.52;0.40;;;;;;;;;;5024752;28;20125;-73
2023/08/06 09:26:46;;;;;;;1.60;0.40;;;;;;;;;;5008470;28;21144;-73
2023/08/06 09:29:11;;;;;;;0.88;0.50;;;;;;;;;;5008613;28;20041;-71
2023/08/06 09:31:45;;;;;;;1.05;0.32;;;;;;;;;;5008239;28;20525;-73
2023/08/06 09:34:18;;;;;;;0.20;0.20;;;;;;;;;;5024448;28;20067;-72
2023/08/06 09:36:48;;;;;;;0.35;0.28;;;;;;;;;;5006763;28;20049;-72
2023/08/06 09:39:15;;;;;;;0.40;0.40;;;;;;;;;;5009304;28;20045;-72
2023/08/06 09:41:42;;;;;;;0.20;0.20;;;;;;;;;;5006860;28;20582;-72
2023/08/06 09:44:23;;;;;;;0.38;0.30;;;;;;;;;;5011827;28;20037;-72
2023/08/06 09:46:53;;;;;;;3.45;0.77;;;;;;;;;;5003945;28;20136;-71
2023/08/06 09:49:24;;;;;;;1.35;0.20;;;;;;;;;;5009696;28;20042;-72
2023/08/06 09:51:53;;;;;;;0.20;0.20;;;;;;;;;;5009415;28;20130;-71
2023/08/06 09:54:19;;;;;;;0.20;0.20;;;;;;;;;;5010418;28;20041;-72
2023/08/06 09:56:44;;;;;;;1.20;0.50;;;;;;;;;;5008765;28;20057;-73
2023/08/06 09:59:11;;;;;;;0.60;0.28;;;;;;;;;;5009678;28;20052;-73
2023/08/06 10:01:37;;;;;;;0.43;0.10;;;;;;;;;;5007152;28;20513;-72
2023/08/06 10:04:04;;;;;;;0.20;0.10;;;;;;;;;;5003541;28;20071;-71
2023/08/06 10:06:33;;;;;;;0.73;0.22;;;;;;;;;;5005349;28;20069;-72
2023/08/06 10:08:59;;;;;;;0.20;0.20;;;;;;;;;;5003815;28;20046;-72
2023/08/06 10:11:27;;;;;;;0.10;0.10;;;;;;;;;;5012186;28;20053;-72
2023/08/06 10:14:04;;;;;;;0.20;0.20;;;;;;;;;;5009884;28;20137;-72
2023/08/06 10:16:30;;;;;;;2.47;0.30;;;;;;;;;;5007293;28;20100;-72
2023/08/06 10:18:57;;;;;;;0.32;0.17;;;;;;;;;;5009098;28;21137;-72
2023/08/06 10:21:23;;;;;;;0.32;0.30;;;;;;;;;;5004602;28;20854;-71
2023/08/06 10:23:54;;;;;;;3.95;0.20;;;;;;;;;;5002011;28;20053;-72
2023/08/06 10:26:20;;;;;;;0.43;0.25;;;;;;;;;;5005713;28;20042;-72
2023/08/06 10:28:45;;;;;;;2.47;0.10;;;;;;;;;;5010285;28;20048;-72
2023/08/06 10:31:11;;;;;;;0.25;0.15;;;;;;;;;;5009565;28;20096;-72
2023/08/06 10:33:44;;;;;;;0.30;0.10;;;;;;;;;;5011611;28;21031;-72
2023/08/06 10:36:10;;;;;;;0.95;0.17;;;;;;;;;;5023389;28;20053;-71
2023/08/06 10:38:47;;;;;;;0.60;0.20;;;;;;;;;;5008328;28;20048;-71
2023/08/06 10:41:24;;;;;;;0.03;0.03;;;;;;;;;;5024112;28;20037;-72
2023/08/06 10:43:49;;;;;;;0.15;0.10;;;;;;;;;;4991472;28;20125;-71
2023/08/06 10:46:27;;;;;;;0.10;0.10;;;;;;;;;;5002709;28;20124;-71
2023/08/06 10:48:53;;;;;;;2.63;0.25;;;;;;;;;;5003390;28;20077;-73
2023/08/06 10:51:18;;;;;;;0.35;0.20;;;;;;;;;;5002414;28;20142;-72
2023/08/06 10:53:45;;;;;;;0.10;0.10;;;;;;;;;;5004520;28;20608;-72
2023/08/06 10:56:22;;;;;;;0.17;0.17;;;;;;;;;;5010170;28;20140;-72
2023/08/06 10:58:49;;;;;;;0.20;0.10;;;;;;;;;;5007865;28;20393;-72
2023/08/06 11:01:15;;;;;;;0.75;0.10;;;;;;;;;;5009460;28;20794;-73
2023/08/06 11:03:45;;;;;;;0.10;0.10;;;;;;;;;;5011710;28;20049;-72
2023/08/06 11:06:17;;;;;;;0.17;0.10;;;;;;;;;;5007213;28;20570;-72
2023/08/06 11:08:49;;;;;;;0.10;0.10;;;;;;;;;;5015488;28;20134;-74
2023/08/06 11:11:16;;;;;;;0.20;0.20;;;;;;;;;;5018977;28;20125;-73
2023/08/06 11:13:46;;;;;;;0.10;0.10;;;;;;;;;;5006132;28;20398;-75
2023/08/06 11:16:14;;;;;;;0.13;0.13;;;;;;;;;;5000690;28;20148;-75
2023/08/06 11:18:42;;;;;;;0.10;0.10;;;;;;;;;;5003577;28;20128;-73
2023/08/06 11:21:07;;;;;;;0.77;0.30;;;;;;;;;;5000318;28;20077;-72
2023/08/06 11:23:34;;;;;;;0.20;0.20;;;;;;;;;;5004467;28;20137;-74
2023/08/06 11:25:59;;;;;;;0.30;0.10;;;;;;;;;;5000914;28;20050;-73
2023/08/06 11:28:25;;;;;;;0.10;0.10;;;;;;;;;;4999391;28;20060;-75
2023/08/06 11:30:51;;;;;;;0.10;0.10;;;;;;;;;;5009568;28;20795;-74
2023/08/06 11:33:22;;;;;;;1.00;0.10;;;;;;;;;;5002497;28;20073;-72
2023/08/06 11:35:48;;;;;;;0.20;0.20;;;;;;;;;;5000675;28;20489;-74
2023/08/06 11:38:14;;;;;;;0.00;0.00;;;;;;;;;;5001304;28;20285;-72
2023/08/06 11:40:39;;;;;;;0.10;0.10;;;;;;;;;;5004811;28;23103;-73
2023/08/06 11:43:06;;;;;;;0.20;0.20;;;;;;;;;;5006025;28;20053;-73
2023/08/06 11:45:34;;;;;;;0.10;0.10;;;;;;;;;;5009458;28;20462;-75
2023/08/06 11:48:00;;;;;;;0.40;0.10;;;;;;;;;;5008179;28;20411;-72
2023/08/06 11:50:27;;;;;;;0.77;0.10;;;;;;;;;;5006736;28;20046;-72
2023/08/06 11:52:56;;;;;;;0.30;0.20;;;;;;;;;;5009051;28;20233;-73
2023/08/06 11:55:23;;;;;;;0.10;0.10;;;;;;;;;;5010559;28;20111;-73
2023/08/06 11:57:49;;;;;;;0.20;0.20;;;;;;;;;;5005920;28;20046;-73
2023/08/06 12:00:16;;;;;;;0.47;0.28;;;;;;;;;;5007899;28;20041;-74
2023/08/06 12:02:45;;;;;;;0.10;0.10;;;;;;;;;;5011856;28;20052;-75
2023/08/06 12:05:11;;;;;;;2.92;0.20;;;;;;;;;;5002818;28;20046;-73
2023/08/06 12:07:38;;;;;;;0.10;0.10;;;;;;;;;;5004377;28;20514;-73
2023/08/06 12:10:05;;;;;;;0.10;0.10;;;;;;;;;;5012099;28;20053;-73
2023/08/06 12:12:30;;;;;;;0.10;0.10;;;;;;;;;;5003849;28;20924;-73
2023/08/06 12:14:56;;;;;;;0.13;0.13;;;;;;;;;;5003118;28;20049;-73
2023/08/06 12:17:24;;;;;;;0.10;0.10;;;;;;;;;;5008650;28;20129;-73
2023/08/06 12:19:50;;;;;;;0.10;0.10;;;;;;;;;;5002317;28;20169;-74
2023/08/06 12:22:16;;;;;;;1.85;0.13;;;;;;;;;;5005354;28;20556;-73
2023/08/06 12:24:43;;;;;;;0.40;0.10;;;;;;;;;;5007810;28;20048;-74
2023/08/06 12:27:09;;;;;;;2.38;0.10;;;;;;;;;;5004730;28;20064;-73
2023/08/06 12:29:35;;;;;;;0.10;0.10;;;;;;;;;;5006400;28;20081;-74
2023/08/06 12:32:00;;;;;;;6.55;0.20;;;;;;;;;;5009937;28;20133;-73
2023/08/06 12:34:26;;;;;;;0.13;0.10;;;;;;;;;;5003148;28;20050;-74
2023/08/06 12:36:52;;;;;;;0.20;0.20;;;;;;;;;;5012202;28;20126;-74
2023/08/06 12:39:17;;;;;;;0.10;0.10;;;;;;;;;;5009876;28;20069;-73
2023/08/06 12:41:45;;;;;;;0.10;0.10;;;;;;;;;;5013360;28;20056;-73
2023/08/06 12:44:12;;;;;;;0.10;0.10;;;;;;;;;;5008339;28;20041;-73
2023/08/06 12:46:37;;;;;;;1.15;0.22;;;;;;;;;;5011938;28;20049;-73
2023/08/06 12:49:03;;;;;;;0.20;0.20;;;;;;;;;;5011551;28;20049;-73
2023/08/06 12:51:28;;;;;;;0.10;0.10;;;;;;;;;;5018651;28;20053;-73
2023/08/06 12:53:53;;;;;;;0.20;0.20;;;;;;;;;;5012942;28;20505;-74
2023/08/06 12:56:19;;;;;;;0.10;0.10;;;;;;;;;;5009548;28;20109;-74
2023/08/06 12:58:44;;;;;;;0.20;0.20;;;;;;;;;;5010267;28;20048;-74
2023/08/06 13:01:10;;;;;;;0.10;0.10;;;;;;;;;;5009820;28;20045;-74
2023/08/06 13:03:35;;;;;;;0.10;0.10;;;;;;;;;;5013219;28;20061;-74
2023/08/06 13:06:01;;;;;;;0.10;0.10;;;;;;;;;;5005345;28;20045;-74
2023/08/06 13:08:26;;;;;;;0.10;0.10;;;;;;;;;;5011558;28;20071;-74
2023/08/06 13:10:52;;;;;;;0.10;0.10;;;;;;;;;;5005963;28;20041;-73
2023/08/06 13:13:17;;;;;;;0.10;0.10;;;;;;;;;;5001989;28;20042;-73
2023/08/06 13:15:43;;;;;;;0.10;0.10;;;;;;;;;;5009001;28;20050;-73
2023/08/06 13:18:08;;;;;;;0.10;0.10;;;;;;;;;;5020310;28;20920;-74
2023/08/06 13:20:34;;;;;;;0.30;0.30;;;;;;;;;;5001836;28;20052;-73
2023/08/06 13:23:01;;;;;;;0.17;0.10;;;;;;;;;;5005943;28;20057;-73
2023/08/06 13:25:28;;;;;;;0.22;0.20;;;;;;;;;;5000193;28;20053;-75
2023/08/06 13:27:54;;;;;;;0.20;0.20;;;;;;;;;;5009247;28;20968;-75
2023/08/06 13:30:20;;;;;;;0.40;0.20;;;;;;;;;;5007061;28;20411;-73
2023/08/06 13:32:46;;;;;;;0.65;0.20;;;;;;;;;;4989803;28;20526;-74
2023/08/06 13:35:11;;;;;;;0.32;0.20;;;;;;;;;;4992561;28;20660;-73
2023/08/06 13:37:37;;;;;;;0.00;0.00;;;;;;;;;;5003011;28;20181;-73
2023/08/06 13:40:04;;;;;;;0.10;0.10;;;;;;;;;;5011744;28;20045;-73
2023/08/06 13:42:29;;;;;;;0.20;0.17;;;;;;;;;;5011562;28;20046;-73
2023/08/06 13:45:02;;;;;;;0.10;0.10;;;;;;;;;;5008801;28;20099;-73
2023/08/06 13:47:27;;;;;;;0.20;0.10;;;;;;;;;;5007841;28;20121;-74
2023/08/06 13:49:53;;;;;;;0.30;0.10;;;;;;;;;;5004168;28;20132;-75
2023/08/06 13:52:19;;;;;;;0.10;0.10;;;;;;;;;;5007536;28;20953;-74
2023/08/06 13:54:44;;;;;;;0.00;0.00;;;;;;;;;;5002692;28;20109;-74
2023/08/06 13:57:10;;;;;;;0.00;0.00;;;;;;;;;;5002948;28;20041;-73
2023/08/06 13:59:35;;;;;;;0.03;0.03;;;;;;;;;;5006772;28;20107;-74
2023/08/06 14:02:01;;;;;;;0.10;0.10;;;;;;;;;;5002772;28;20050;-73
2023/08/06 14:04:26;;;;;;;0.20;0.20;;;;;;;;;;4999431;28;20642;-74
2023/08/06 14:06:52;;;;;;;0.10;0.10;;;;;;;;;;5001516;28;20072;-75
2023/08/06 14:09:18;;;;;;;0.77;0.30;;;;;;;;;;5006173;28;20045;-74
2023/08/06 14:11:44;;;;;;;0.10;0.10;;;;;;;;;;5001486;28;20087;-75
2023/08/06 14:14:11;;;;;;;0.00;0.00;;;;;;;;;;4989410;28;20051;-74
2023/08/06 14:16:36;;;;;;;0.40;0.10;;;;;;;;;;5011234;28;20081;-72
2023/08/06 14:19:02;;;;;;;0.00;0.00;;;;;;;;;;5011127;28;20077;-74
2023/08/06 14:21:27;;;;;;;0.10;0.10;;;;;;;;;;5003091;28;20037;-76
2023/08/06 14:23:53;;;;;;;0.20;0.13;;;;;;;;;;5008306;28;20073;-74
2023/08/06 14:26:18;;;;;;;0.13;0.13;;;;;;;;;;5004209;28;20045;-73
2023/08/06 14:28:44;;;;;;;0.20;0.20;;;;;;;;;;5004356;28;20104;-74
2023/08/06 14:31:09;;;;;;;1.90;0.30;;;;;;;;;;4988864;28;20154;-74
2023/08/06 14:33:35;;;;;;;0.10;0.10;;;;;;;;;;5005113;28;20170;-72
2023/08/06 14:36:01;;;;;;;0.68;0.20;;;;;;;;;;5005611;28;20506;-74
2023/08/06 14:38:27;;;;;;;0.10;0.10;;;;;;;;;;5003946;28;20053;-74
2023/08/06 14:40:52;;;;;;;0.10;0.10;;;;;;;;;;5001748;28;20038;-74